createdAt,value
2022-10-17T00:02:23.826Z,13.70
2022-10-17T00:04:50.785Z,12.98
2022-10-17T00:07:17.463Z,18.27
2022-10-17T00:09:44.355Z,12.80
2022-10-17T00:12:11.131Z,12.77
2022-10-17T00:14:37.939Z,16.50
2022-10-17T00:17:04.910Z,17.55
2022-10-17T00:19:31.686Z,19.02
2022-10-17T00:21:58.413Z,14.65
2022-10-17T00:24:25.105Z,14.45
2022-10-17T00:26:51.770Z,20.10
2022-10-17T00:29:19.087Z,14.63
2022-10-17T00:31:47.713Z,19.88
2022-10-17T00:34:14.539Z,21.02
2022-10-17T00:36:41.335Z,17.52
2022-10-17T00:39:09.040Z,19.58
2022-10-17T00:41:35.828Z,18.38
2022-10-17T00:44:08.138Z,15.77
2022-10-17T00:46:36.802Z,15.77
2022-10-17T00:49:12.472Z,16.35
2022-10-17T00:51:50.761Z,18.00
2022-10-17T00:54:20.913Z,19.20
2022-10-17T00:56:48.611Z,17.80
2022-10-17T00:59:17.488Z,21.63
2022-10-17T01:02:06.936Z,19.45
2022-10-17T01:04:33.586Z,14.80
2022-10-17T01:07:00.309Z,16.63
2022-10-17T01:09:27.479Z,17.35
2022-10-17T01:12:04.728Z,20.27
2022-10-17T01:15:14.297Z,19.20
2022-10-17T01:17:55.911Z,15.35
2022-10-17T01:20:36.462Z,16.63
2022-10-17T01:23:46.093Z,16.25
2022-10-17T01:26:21.897Z,16.75
2022-10-17T01:29:21.645Z,15.85
2022-10-17T01:32:11.472Z,16.77
2022-10-17T01:34:51.748Z,16.77
2022-10-17T01:37:45.025Z,14.55
2022-10-17T01:40:16.322Z,18.67
2022-10-17T01:42:46.390Z,14.95
2022-10-17T01:45:17.993Z,16.02
2022-10-17T01:50:19.817Z,15.55
2022-10-17T01:52:53.007Z,16.95
2022-10-17T01:55:32.190Z,17.15
2022-10-17T01:58:08.046Z,16.55
2022-10-17T02:00:35.885Z,15.85
2022-10-17T02:03:07.302Z,15.35
2022-10-17T02:05:38.761Z,16.73
2022-10-17T02:08:06.349Z,15.43
2022-10-17T02:10:47.125Z,14.50
2022-10-17T02:13:21.052Z,13.93
2022-10-17T02:16:08.728Z,12.65
2022-10-17T02:19:13.259Z,14.90
2022-10-17T02:21:58.140Z,14.90
2022-10-17T02:24:33.710Z,19.38
2022-10-17T02:27:24.988Z,19.27
2022-10-17T02:30:22.248Z,17.83
2022-10-17T02:32:55.119Z,18.95
2022-10-17T02:35:25.759Z,17.83
2022-10-17T02:37:54.105Z,20.25
2022-10-17T02:40:24.312Z,23.60
2022-10-17T02:42:54.408Z,20.08
2022-10-17T02:45:24.174Z,19.27
2022-10-17T02:48:11.018Z,17.65
2022-10-17T02:50:40.477Z,16.60
2022-10-17T02:53:17.444Z,21.63
2022-10-17T02:55:51.585Z,15.82
2022-10-17T02:58:26.917Z,18.98
2022-10-17T03:00:54.668Z,17.48
2022-10-17T03:03:28.101Z,17.30
2022-10-17T03:05:55.038Z,20.63
2022-10-17T03:08:25.050Z,20.38
2022-10-17T03:10:51.855Z,17.88
2022-10-17T03:13:19.283Z,16.50
2022-10-17T03:15:46.577Z,15.85
2022-10-17T03:18:14.309Z,18.15
2022-10-17T03:20:41.080Z,20.42
2022-10-17T03:23:08.650Z,17.00
2022-10-17T03:25:36.349Z,20.98
2022-10-17T03:28:03.269Z,18.10
2022-10-17T03:30:30.045Z,16.80
2022-10-17T03:33:00.432Z,16.63
2022-10-17T03:35:27.846Z,18.92
2022-10-17T03:37:56.178Z,19.95
2022-10-17T03:40:24.413Z,23.00
2022-10-17T03:42:51.793Z,17.02
2022-10-17T03:45:18.505Z,18.77
2022-10-17T03:47:46.444Z,24.73
2022-10-17T03:50:13.315Z,20.55
2022-10-17T03:52:40.635Z,18.02
2022-10-17T03:55:08.533Z,19.70
2022-10-17T03:57:36.866Z,17.58
2022-10-17T04:00:05.845Z,18.45
2022-10-17T04:02:40.871Z,21.23
2022-10-17T04:05:10.153Z,30.52
2022-10-17T04:07:37.608Z,22.77
2022-10-17T04:10:05.502Z,22.42
2022-10-17T04:12:32.823Z,20.98
2022-10-17T04:14:59.761Z,20.63
2022-10-17T04:17:27.091Z,24.35
2022-10-17T04:19:53.872Z,24.85
2022-10-17T04:22:22.578Z,24.33
2022-10-17T04:24:49.376Z,20.58
2022-10-17T04:27:38.022Z,19.90
2022-10-17T04:30:05.900Z,20.60
2022-10-17T04:32:38.541Z,23.30
2022-10-17T04:35:13.004Z,24.83
2022-10-17T04:37:44.194Z,19.80
2022-10-17T04:40:17.415Z,17.80
2022-10-17T04:42:44.362Z,20.73
2022-10-17T04:45:13.929Z,23.27
2022-10-17T04:47:41.676Z,18.05
2022-10-17T04:50:08.737Z,24.13
2022-10-17T04:52:39.418Z,24.17
2022-10-17T04:55:08.345Z,22.58
2022-10-17T04:57:36.127Z,23.58
2022-10-17T05:00:18.384Z,25.70
2022-10-17T05:02:57.885Z,17.73
2022-10-17T05:05:25.942Z,24.05
2022-10-17T05:07:54.355Z,19.60
2022-10-17T05:10:25.192Z,20.58
2022-10-17T05:12:53.336Z,21.88
2022-10-17T05:15:23.279Z,22.17
2022-10-17T05:17:55.878Z,22.45
2022-10-17T05:20:24.123Z,24.92
2022-10-17T05:22:50.971Z,19.95
2022-10-17T05:25:19.137Z,23.42
2022-10-17T05:27:45.884Z,18.58
2022-10-17T05:30:12.785Z,20.25
2022-10-17T05:32:40.783Z,16.60
2022-10-17T05:35:08.442Z,16.95
2022-10-17T05:37:36.806Z,25.42
2022-10-17T05:40:05.423Z,18.77
2022-10-17T05:42:32.808Z,23.30
2022-10-17T05:45:00.031Z,20.23
2022-10-17T05:47:27.516Z,21.10
2022-10-17T05:49:54.461Z,20.70
2022-10-17T05:52:27.350Z,21.20
2022-10-17T05:55:04.871Z,26.52
2022-10-17T05:57:31.754Z,20.35
2022-10-17T06:00:00.816Z,30.08
2022-10-17T06:02:29.500Z,23.58
2022-10-17T06:04:56.411Z,25.60
2022-10-17T06:07:24.172Z,24.08
2022-10-17T06:09:51.752Z,22.15
2022-10-17T06:12:18.459Z,27.10
2022-10-17T06:14:45.903Z,24.73
2022-10-17T06:17:16.223Z,26.67
2022-10-17T06:19:44.788Z,23.05
2022-10-17T06:22:12.866Z,24.35
2022-10-17T06:24:40.212Z,28.70
2022-10-17T06:27:11.013Z,26.20
2022-10-17T06:32:08.694Z,26.20
2022-10-17T06:34:38.497Z,29.77
2022-10-17T06:37:05.341Z,29.52
2022-10-17T06:39:35.759Z,22.17
2022-10-17T06:42:07.042Z,23.35
2022-10-17T06:44:45.826Z,21.73
2022-10-17T06:47:32.997Z,23.75
2022-10-17T06:50:05.616Z,23.65
2022-10-17T06:52:42.144Z,24.63
2022-10-17T06:55:27.578Z,22.17
2022-10-17T06:58:15.882Z,21.58
2022-10-17T07:01:01.697Z,20.35
2022-10-17T07:03:28.972Z,28.85
2022-10-17T07:05:56.789Z,24.27
2022-10-17T07:08:24.182Z,22.75
2022-10-17T07:10:51.375Z,24.45
2022-10-17T07:13:18.801Z,20.55
2022-10-17T07:15:46.314Z,20.90
2022-10-17T07:18:14.521Z,16.05
2022-10-17T07:20:41.274Z,20.30
2022-10-17T07:23:07.980Z,19.75
2022-10-17T07:25:39.388Z,17.88
2022-10-17T07:28:08.649Z,14.70
2022-10-17T07:30:35.782Z,13.82
2022-10-17T07:33:07.662Z,17.77
2022-10-17T07:35:34.875Z,16.48
2022-10-17T07:38:01.604Z,15.13
2022-10-17T07:40:28.401Z,15.77
2022-10-17T07:42:56.370Z,16.02
2022-10-17T07:45:27.561Z,15.15
2022-10-17T07:47:57.879Z,14.90
2022-10-17T07:50:25.497Z,16.80
2022-10-17T07:52:52.345Z,11.52
2022-10-17T07:55:19.187Z,9.35
2022-10-17T07:57:45.872Z,14.38
2022-10-17T08:00:13.228Z,10.88
2022-10-17T08:02:41.233Z,16.45
2022-10-17T08:05:08.411Z,12.27
2022-10-17T08:07:35.129Z,11.57
2022-10-17T08:10:02.071Z,11.23
2022-10-17T08:12:32.318Z,15.75
2022-10-17T08:14:59.493Z,14.13
2022-10-17T08:17:26.506Z,11.90
2022-10-17T08:19:53.208Z,15.23
2022-10-17T08:22:19.873Z,9.27
2022-10-17T08:24:46.603Z,14.38
2022-10-17T08:27:13.754Z,10.30
2022-10-17T08:29:40.757Z,12.07
2022-10-17T08:32:09.998Z,12.05
2022-10-17T08:34:37.144Z,10.00
2022-10-17T08:37:04.158Z,11.27
2022-10-17T08:39:30.861Z,12.65
2022-10-17T08:42:03.321Z,14.40
2022-10-17T08:44:43.381Z,13.68
2022-10-17T08:47:17.913Z,14.32
2022-10-17T08:49:53.216Z,8.43
2022-10-17T08:52:35.207Z,11.40
2022-10-17T08:55:01.870Z,12.65
2022-10-17T08:57:29.141Z,9.85
2022-10-17T08:59:56.811Z,10.20
2022-10-17T09:02:38.904Z,10.02
2022-10-17T09:05:27.325Z,11.68
2022-10-17T09:08:22.232Z,7.25
2022-10-17T09:11:04.193Z,9.32
2022-10-17T09:13:49.577Z,8.18
2022-10-17T09:16:29.843Z,8.77
2022-10-17T09:19:03.871Z,6.97
2022-10-17T09:21:43.422Z,6.38
2022-10-17T09:24:25.226Z,9.00
2022-10-17T09:26:54.501Z,10.68
2022-10-17T09:29:30.838Z,9.70
2022-10-17T09:32:17.188Z,10.13
2022-10-17T09:34:44.033Z,10.38
2022-10-17T09:37:17.091Z,9.55
2022-10-17T09:39:47.139Z,11.60
2022-10-17T09:42:19.281Z,8.98
2022-10-17T09:45:04.607Z,6.45
2022-10-17T09:47:38.082Z,9.27
2022-10-17T09:50:15.518Z,11.75
2022-10-17T09:52:48.606Z,11.13
2022-10-17T09:55:44.119Z,11.15
2022-10-17T09:58:11.993Z,9.30
2022-10-17T10:00:41.889Z,9.90
2022-10-17T10:03:19.822Z,7.00
2022-10-17T10:06:16.715Z,7.03
2022-10-17T10:08:50.851Z,8.95
2022-10-17T10:11:18.942Z,11.85
2022-10-17T10:13:47.693Z,11.98
2022-10-17T10:16:21.059Z,9.13
2022-10-17T10:18:50.809Z,11.20
2022-10-17T10:21:23.585Z,11.75
2022-10-17T10:24:08.683Z,8.32
2022-10-17T10:26:41.339Z,9.77
2022-10-17T10:29:41.409Z,9.00
2022-10-17T10:32:30.650Z,13.38
2022-10-17T10:35:02.145Z,9.90
2022-10-17T10:37:34.472Z,9.35
2022-10-17T10:40:04.386Z,12.05
2022-10-17T10:42:37.659Z,14.20
2022-10-17T10:45:47.487Z,17.10
2022-10-17T10:48:23.762Z,12.93
2022-10-17T10:51:00.597Z,16.33
2022-10-17T10:53:57.205Z,21.67
2022-10-17T10:56:44.034Z,13.90
2022-10-17T10:59:28.901Z,15.82
2022-10-17T11:02:02.167Z,11.88
2022-10-17T11:04:47.456Z,15.45
2022-10-17T11:07:30.075Z,12.35
2022-10-17T11:10:18.245Z,11.10
2022-10-17T11:12:54.359Z,12.50
2022-10-17T11:15:39.267Z,18.98
2022-10-17T11:18:13.125Z,14.80
2022-10-17T11:20:52.305Z,14.52
2022-10-17T11:23:46.928Z,17.38
2022-10-17T11:26:27.025Z,14.13
2022-10-17T11:28:54.780Z,13.52
2022-10-17T11:31:24.283Z,12.40
2022-10-17T11:33:56.961Z,9.98
2022-10-17T11:36:46.347Z,9.77
2022-10-17T11:42:19.669Z,8.25
2022-10-17T11:44:50.682Z,14.90
2022-10-17T11:47:32.262Z,9.82
2022-10-17T11:53:09.765Z,10.82
2022-10-17T11:55:38.299Z,9.27
2022-10-17T11:58:32.585Z,9.90
2022-10-17T12:01:05.386Z,11.85
2022-10-17T12:03:57.681Z,13.65
2022-10-17T12:06:54.619Z,12.10
2022-10-17T12:09:46.070Z,12.48
2022-10-17T12:12:26.038Z,10.55
2022-10-17T12:14:53.279Z,7.72
2022-10-17T12:17:39.250Z,12.00
2022-10-17T12:20:23.965Z,15.38
2022-10-17T12:22:51.999Z,11.88
2022-10-17T12:25:59.622Z,12.45
2022-10-17T12:31:21.728Z,12.55
2022-10-17T12:33:57.670Z,11.00
2022-10-17T12:36:27.541Z,9.82
2022-10-17T12:39:02.980Z,9.10
2022-10-17T12:41:38.574Z,13.50
2022-10-17T12:44:14.452Z,13.05
2022-10-17T12:46:41.655Z,9.57
2022-10-17T12:49:20.934Z,10.70
2022-10-17T12:52:15.118Z,11.55
2022-10-17T12:54:53.577Z,10.52
2022-10-17T12:57:35.661Z,21.13
2022-10-17T13:00:13.802Z,13.57
2022-10-17T13:02:41.249Z,13.02
2022-10-17T13:05:15.735Z,12.00
2022-10-17T13:07:45.215Z,9.15
2022-10-17T13:10:34.837Z,8.50
2022-10-17T13:13:06.134Z,15.57
2022-10-17T13:15:35.019Z,10.15
2022-10-17T13:18:01.811Z,14.18
2022-10-17T13:20:31.721Z,11.88
2022-10-17T13:22:58.846Z,10.30
2022-10-17T13:25:27.295Z,12.35
2022-10-17T13:28:05.480Z,12.93
2022-10-17T13:30:36.625Z,10.30
2022-10-17T13:33:15.917Z,12.98
2022-10-17T13:35:59.573Z,13.55
2022-10-17T13:38:32.364Z,9.77
2022-10-17T13:41:06.158Z,14.77
2022-10-17T13:43:43.779Z,13.77
2022-10-17T13:46:37.221Z,14.73
2022-10-17T13:49:18.663Z,8.63
2022-10-17T13:51:47.795Z,14.20
2022-10-17T13:54:40.669Z,12.65
2022-10-17T13:57:25.097Z,11.63
2022-10-17T14:00:08.575Z,9.90
2022-10-17T14:02:41.782Z,9.48
2022-10-17T14:05:17.626Z,11.80
2022-10-17T14:08:13.068Z,11.48
2022-10-17T14:10:43.215Z,10.77
2022-10-17T14:13:27.729Z,12.40
2022-10-17T14:15:57.349Z,8.60
2022-10-17T14:18:36.624Z,9.98
2022-10-17T14:24:13.089Z,11.27
2022-10-17T14:26:58.850Z,11.57
2022-10-17T14:29:32.889Z,13.52
2022-10-17T14:32:03.881Z,14.30
2022-10-17T14:34:36.681Z,8.68
2022-10-17T14:37:13.126Z,13.25
2022-10-17T14:39:39.962Z,20.10
2022-10-17T14:42:07.068Z,12.23
2022-10-17T14:44:35.770Z,7.85
2022-10-17T14:47:38.132Z,14.18
2022-10-17T14:50:12.602Z,10.05
2022-10-17T14:52:40.685Z,15.00
2022-10-17T14:55:25.672Z,8.90
2022-10-17T14:57:52.281Z,10.32
2022-10-17T15:00:20.920Z,9.07
2022-10-17T15:02:49.000Z,9.27
2022-10-17T15:05:15.983Z,9.85
2022-10-17T15:07:43.108Z,9.23
2022-10-17T15:10:36.531Z,14.63
2022-10-17T15:13:26.577Z,8.82
2022-10-17T15:15:52.406Z,12.18
2022-10-17T15:18:19.448Z,10.90
2022-10-17T15:20:46.158Z,15.13
2022-10-17T15:23:12.905Z,12.10
2022-10-17T15:25:40.037Z,11.77
2022-10-17T15:28:06.733Z,13.75
2022-10-17T15:30:36.336Z,15.73
2022-10-17T15:33:03.422Z,12.65
2022-10-17T15:35:30.830Z,13.02
2022-10-17T15:37:57.717Z,18.27
2022-10-17T15:40:29.587Z,16.88
2022-10-17T15:42:57.235Z,12.63
2022-10-17T15:45:24.427Z,11.50
2022-10-17T15:47:57.474Z,13.00
2022-10-17T15:50:24.236Z,14.13
2022-10-17T15:52:51.015Z,14.02
2022-10-17T15:55:18.919Z,14.63
2022-10-17T15:57:46.980Z,16.67
2022-10-17T16:00:18.885Z,14.05
2022-10-17T16:02:46.371Z,12.70
2022-10-17T16:05:25.994Z,13.60
2022-10-17T16:07:53.903Z,13.90
2022-10-17T16:10:22.526Z,19.15
2022-10-17T16:12:50.210Z,17.98
2022-10-17T16:15:26.372Z,17.77
2022-10-17T16:17:54.809Z,13.13
2022-10-17T16:20:22.792Z,19.83
2022-10-17T16:22:50.117Z,13.15
2022-10-17T16:25:27.013Z,12.88
2022-10-17T16:27:55.969Z,11.73
2022-10-17T16:30:24.966Z,15.85
2022-10-17T16:32:52.448Z,11.13
2022-10-17T16:35:25.616Z,25.25
2022-10-17T16:37:52.578Z,12.10
2022-10-17T16:40:19.462Z,13.38
2022-10-17T16:42:46.534Z,14.98
2022-10-17T16:45:22.533Z,12.75
2022-10-17T16:47:50.391Z,16.08
2022-10-17T16:50:17.198Z,12.98
2022-10-17T16:52:43.906Z,10.93
2022-10-17T16:55:10.965Z,13.85
2022-10-17T16:57:37.878Z,13.10
2022-10-17T17:00:06.499Z,13.68
2022-10-17T17:02:33.566Z,15.82
2022-10-17T17:05:00.425Z,15.13
2022-10-17T17:07:29.368Z,16.55
2022-10-17T17:09:56.576Z,13.27
2022-10-17T17:12:23.677Z,18.50
2022-10-17T17:14:50.369Z,17.30
2022-10-17T17:17:30.180Z,16.73
2022-10-17T17:20:04.072Z,19.48
2022-10-17T17:22:30.926Z,14.10
2022-10-17T17:24:57.571Z,17.98
2022-10-17T17:27:25.101Z,15.88
2022-10-17T17:29:52.114Z,16.10
2022-10-17T17:32:18.762Z,16.40
2022-10-17T17:34:45.438Z,16.98
2022-10-17T17:37:12.194Z,15.15
2022-10-17T17:39:38.792Z,20.25
2022-10-17T17:42:05.498Z,17.60
2022-10-17T17:44:32.223Z,14.52
2022-10-17T17:46:58.892Z,13.82
2022-10-17T17:49:25.802Z,19.77
2022-10-17T17:51:52.623Z,18.25
2022-10-17T17:54:19.890Z,15.48
2022-10-17T17:56:46.699Z,17.95
2022-10-17T17:59:13.528Z,16.15
2022-10-17T18:01:40.472Z,16.15
2022-10-17T18:04:08.707Z,16.45
2022-10-17T18:06:37.357Z,19.23
2022-10-17T18:09:05.241Z,14.50
2022-10-17T18:11:32.373Z,16.75
2022-10-17T18:14:01.677Z,11.88
2022-10-17T18:16:29.675Z,17.90
2022-10-17T18:18:59.463Z,14.57
2022-10-17T18:23:54.701Z,15.43
2022-10-17T18:26:21.408Z,13.13
2022-10-17T18:28:49.417Z,14.55
2022-10-17T18:31:19.687Z,13.10
2022-10-17T18:33:46.738Z,14.23
2022-10-17T18:36:15.197Z,12.63
2022-10-17T18:38:42.680Z,11.65
2022-10-17T18:41:12.278Z,11.23
2022-10-17T18:43:41.181Z,11.88
2022-10-17T18:46:13.901Z,12.32
2022-10-17T18:48:44.241Z,10.70
2022-10-17T18:51:11.898Z,17.33
2022-10-17T18:53:43.476Z,14.10
2022-10-17T18:56:11.197Z,18.50
2022-10-17T18:58:38.639Z,15.20
2022-10-17T19:01:08.172Z,24.17
2022-10-17T19:03:35.658Z,17.00
2022-10-17T19:06:09.399Z,11.83
2022-10-17T19:08:37.661Z,12.45
2022-10-17T19:11:08.117Z,13.55
2022-10-17T19:13:35.864Z,10.40
2022-10-17T19:16:10.641Z,9.52
2022-10-17T19:18:38.117Z,8.63
2022-10-17T19:21:06.698Z,8.52
2022-10-17T19:23:35.789Z,8.90
2022-10-17T19:26:11.123Z,9.63
2022-10-17T19:28:41.997Z,9.00
2022-10-17T19:31:09.098Z,11.03
2022-10-17T19:33:36.788Z,8.55
2022-10-17T19:36:08.449Z,10.68
2022-10-17T19:41:07.749Z,13.82
2022-10-17T19:43:38.737Z,12.65
2022-10-17T19:46:17.423Z,14.70
2022-10-17T19:48:45.091Z,12.90
2022-10-17T19:51:15.227Z,10.43
2022-10-17T19:53:42.503Z,9.73
2022-10-17T19:56:09.694Z,7.40
2022-10-17T19:58:44.042Z,7.75
2022-10-17T20:01:13.916Z,7.85
2022-10-17T20:03:40.655Z,8.35
2022-10-17T20:06:08.265Z,8.05
2022-10-17T20:08:35.748Z,7.07
2022-10-17T20:11:05.129Z,7.55
2022-10-17T20:13:32.314Z,7.75
2022-10-17T20:15:59.248Z,10.23
2022-10-17T20:18:27.201Z,6.75
2022-10-17T20:20:54.396Z,8.20
2022-10-17T20:23:22.174Z,8.50
2022-10-17T20:26:13.403Z,9.48
2022-10-17T20:28:46.331Z,7.45
2022-10-17T20:31:14.110Z,8.45
2022-10-17T20:33:41.643Z,9.25
2022-10-17T20:36:11.400Z,9.48
2022-10-17T20:38:38.151Z,5.68
2022-10-17T20:41:07.294Z,5.70
2022-10-17T20:43:34.449Z,7.60
2022-10-17T20:46:09.677Z,7.10
2022-10-17T20:48:42.507Z,11.45
2022-10-17T20:51:10.603Z,6.72
2022-10-17T20:53:38.049Z,7.60
2022-10-17T20:56:08.418Z,5.50
2022-10-17T20:58:35.775Z,6.20
2022-10-17T21:01:10.068Z,11.23
2022-10-17T21:03:40.972Z,7.85
2022-10-17T21:06:10.810Z,5.57
2022-10-17T21:08:37.924Z,6.93
2022-10-17T21:11:19.733Z,6.38
2022-10-17T21:13:47.602Z,4.95
2022-10-17T21:16:18.911Z,7.43
2022-10-17T21:18:46.164Z,4.80
2022-10-17T21:21:15.746Z,5.03
2022-10-17T21:23:45.302Z,5.97
2022-10-17T21:26:13.387Z,5.22
2022-10-17T21:28:41.099Z,4.90
2022-10-17T21:31:28.342Z,5.70
2022-10-17T21:33:56.806Z,6.05
2022-10-17T21:36:25.108Z,7.75
2022-10-17T21:38:53.847Z,8.52
2022-10-17T21:41:23.561Z,4.93
2022-10-17T21:43:59.473Z,5.63
2022-10-17T21:46:26.673Z,6.75
2022-10-17T21:48:53.887Z,5.20
2022-10-17T21:51:23.542Z,8.48
2022-10-17T21:53:51.754Z,4.72
2022-10-17T21:56:21.393Z,5.47
2022-10-17T21:58:48.917Z,4.80
2022-10-17T22:01:18.852Z,4.47
2022-10-17T22:03:47.738Z,7.50
2022-10-17T22:09:05.166Z,5.28
2022-10-17T22:11:34.883Z,6.65
2022-10-17T22:14:11.898Z,4.82
2022-10-17T22:16:39.197Z,7.43
2022-10-17T22:19:06.989Z,7.13
2022-10-17T22:21:35.483Z,6.85
2022-10-17T22:24:05.197Z,5.63
2022-10-17T22:26:34.403Z,4.85
2022-10-17T22:29:01.620Z,5.00
2022-10-17T22:31:28.623Z,9.00
2022-10-17T22:33:55.911Z,7.35
2022-10-17T22:36:22.795Z,5.35
2022-10-17T22:38:49.424Z,7.03
2022-10-17T22:41:16.274Z,5.88
2022-10-17T22:43:42.944Z,6.70
2022-10-17T22:46:12.858Z,5.90
2022-10-17T22:48:39.631Z,6.35
2022-10-17T22:51:06.407Z,11.43
2022-10-17T22:53:34.957Z,6.70
2022-10-17T22:56:14.806Z,5.65
2022-10-17T22:58:41.849Z,6.43
2022-10-17T23:01:14.525Z,5.10
2022-10-17T23:03:41.479Z,5.90
2022-10-17T23:06:08.594Z,9.55
2022-10-17T23:08:35.559Z,7.63
2022-10-17T23:11:02.242Z,7.05
2022-10-17T23:13:29.013Z,6.32
2022-10-17T23:15:57.051Z,6.85
2022-10-17T23:18:25.628Z,8.15
2022-10-17T23:20:53.119Z,5.93
2022-10-17T23:23:20.207Z,8.88
2022-10-17T23:25:46.986Z,6.07
2022-10-17T23:28:13.702Z,7.90
2022-10-17T23:30:40.798Z,7.65
2022-10-17T23:33:07.996Z,6.05
2022-10-17T23:35:35.880Z,6.00
2022-10-17T23:38:03.051Z,8.38
2022-10-17T23:40:30.041Z,6.60
2022-10-17T23:42:56.761Z,5.63
2022-10-17T23:45:23.612Z,9.07
2022-10-17T23:47:50.332Z,8.40
2022-10-17T23:50:17.120Z,8.38
2022-10-17T23:52:43.858Z,7.65
2022-10-17T23:55:11.102Z,12.27
2022-10-17T23:57:37.785Z,7.43
